Time;durP1;ratioP1;P1;durP2;ratioP2;P2;SDS_P1;SDS_P2;PMS_P1;PMS_P2;Temp;Humidity;BMP_temperature;BMP_pressure;BME280_temperature;BME280_humidity;BME280_pressure;Samples;Min_cycle;Max_cycle;Signal;HPM_P1;HPM_P2
2022/01/14 00:02:22;;;;;;;64.03;43.08;;;6.00;99.90;;;;;;5023779;28;20382;-84
2022/01/14 00:04:47;;;;;;;61.83;42.42;;;5.90;99.90;;;;;;5030920;28;20430;-84
2022/01/14 00:07:13;;;;;;;55.83;41.30;;;6.00;99.90;;;;;;5030738;28;20704;-83
2022/01/14 00:09:40;;;;;;;56.60;41.37;;;6.00;99.90;;;;;;5022598;28;20399;-83
2022/01/14 00:12:14;;;;;;;56.40;41.25;;;6.00;99.90;;;;;;5022667;28;20407;-84
2022/01/14 00:14:43;;;;;;;52.63;38.90;;;6.00;99.90;;;;;;5031362;28;20517;-85
2022/01/14 00:17:13;;;;;;;53.95;39.45;;;6.00;99.90;;;;;;5022169;28;20723;-84
2022/01/14 00:19:41;;;;;;;52.25;38.85;;;6.00;99.90;;;;;;5021877;28;20414;-85
2022/01/14 00:22:12;;;;;;;53.08;38.92;;;6.00;99.90;;;;;;5013208;28;20483;-87
2022/01/14 00:35:19;;;;;;;51.57;37.33;;;6.10;99.90;;;;;;5020940;28;20400;-83
2022/01/14 00:37:44;;;;;;;47.90;37.67;;;6.10;99.90;;;;;;5018746;28;20891;-84
2022/01/14 00:40:10;;;;;;;48.65;36.25;;;6.10;99.90;;;;;;5014122;28;20422;-85
2022/01/14 00:42:36;;;;;;;52.03;38.30;;;6.10;99.90;;;;;;5012315;28;20496;-84
2022/01/14 00:45:07;;;;;;;54.88;37.30;;;6.10;99.90;;;;;;5021219;28;20458;-85
2022/01/14 00:47:34;;;;;;;48.70;36.05;;;6.10;99.90;;;;;;5012363;28;20711;-87
2022/01/14 00:50:00;;;;;;;52.45;36.75;;;6.20;99.90;;;;;;5020561;28;20398;-86
2022/01/14 00:52:26;;;;;;;52.17;36.30;;;6.20;99.90;;;;;;5019969;28;20397;-84
2022/01/14 00:54:51;;;;;;;50.97;37.07;;;6.10;99.90;;;;;;5012725;28;20436;-84
2022/01/14 00:57:29;;;;;;;51.75;37.72;;;6.20;99.90;;;;;;5019951;28;20406;-86
2022/01/14 00:59:54;;;;;;;50.47;36.83;;;6.20;99.90;;;;;;5024321;28;20409;-86
2022/01/14 01:02:20;;;;;;;50.25;36.83;;;6.30;99.90;;;;;;5023401;28;20423;-86
2022/01/14 01:04:46;;;;;;;50.70;37.28;;;6.20;99.90;;;;;;5015390;28;20408;-84
2022/01/14 01:07:12;;;;;;;51.78;37.20;;;6.20;99.90;;;;;;5016482;28;20454;-86
2022/01/14 01:09:45;;;;;;;47.72;36.03;;;6.10;99.90;;;;;;5024520;28;20836;-85
2022/01/14 01:12:24;;;;;;;47.10;36.47;;;6.20;99.90;;;;;;5010795;28;20988;-85
2022/01/14 01:15:02;;;;;;;52.88;37.10;;;6.20;99.90;;;;;;5014901;28;20403;-85
2022/01/14 01:17:28;;;;;;;50.95;35.80;;;6.20;99.90;;;;;;5009785;28;20761;-85
2022/01/14 01:19:53;;;;;;;46.10;35.97;;;6.30;99.90;;;;;;5026900;28;20412;-86
2022/01/14 01:22:19;;;;;;;49.00;36.50;;;6.20;99.90;;;;;;5020568;28;20782;-86
2022/01/14 01:24:45;;;;;;;51.55;36.08;;;6.30;99.90;;;;;;5013256;28;20392;-87
2022/01/14 01:27:10;;;;;;;53.03;36.90;;;6.20;99.90;;;;;;5018962;28;20451;-85
2022/01/14 01:32:04;;;;;;;51.60;35.30;;;6.20;99.90;;;;;;5009364;28;20408;-84
2022/01/14 01:34:29;;;;;;;52.25;36.15;;;6.30;99.90;;;;;;5010514;28;20486;-86
2022/01/14 01:36:57;;;;;;;53.20;37.95;;;6.20;99.90;;;;;;5023977;28;20817;-87
2022/01/14 01:39:31;;;;;;;53.10;36.63;;;6.30;99.90;;;;;;5007757;28;20486;-85
2022/01/14 01:42:00;;;;;;;53.10;37.33;;;6.20;99.90;;;;;;5027224;28;20395;-84
2022/01/14 01:44:27;;;;;;;50.97;37.35;;;6.20;99.90;;;;;;5011140;28;20405;-87
2022/01/14 01:46:55;;;;;;;52.58;38.10;;;6.30;99.90;;;;;;5017828;28;20402;-86
2022/01/14 01:49:26;;;;;;;53.00;36.92;;;6.30;99.90;;;;;;5015559;28;20396;-85
2022/01/14 01:51:52;;;;;;;52.22;37.88;;;6.30;99.90;;;;;;5021208;28;20790;-85
2022/01/14 01:54:20;;;;;;;55.53;38.92;;;6.30;99.90;;;;;;5028233;28;20447;-86
2022/01/14 01:56:49;;;;;;;54.13;38.23;;;6.20;99.90;;;;;;5015034;28;20451;-84
2022/01/14 01:59:16;;;;;;;55.50;38.23;;;6.20;99.90;;;;;;5020056;28;20505;-87
2022/01/14 02:01:42;;;;;;;54.22;38.05;;;6.20;99.90;;;;;;5021861;28;20390;-85
2022/01/14 02:04:08;;;;;;;55.75;38.08;;;6.20;99.90;;;;;;5014219;28;20410;-84
2022/01/14 02:06:38;;;;;;;52.40;36.25;;;6.20;99.90;;;;;;5007793;28;20388;-84
2022/01/14 02:09:05;;;;;;;58.40;37.70;;;6.20;99.90;;;;;;5014486;28;20387;-85
2022/01/14 02:11:31;;;;;;;54.28;38.15;;;6.20;99.90;;;;;;5008427;28;20391;-85
2022/01/14 02:14:00;;;;;;;53.85;39.25;;;6.10;99.90;;;;;;5031307;28;20749;-85
2022/01/14 02:16:36;;;;;;;55.45;38.90;;;6.20;99.90;;;;;;5012023;28;20459;-85
2022/01/14 02:19:16;;;;;;;56.67;37.90;;;6.20;99.90;;;;;;5007408;28;20418;-87
2022/01/14 02:27:00;;;;;;;52.42;37.42;;;6.20;99.90;;;;;;5019623;28;20391;-83
2022/01/14 02:29:26;;;;;;;57.00;39.13;;;6.20;99.90;;;;;;5011952;28;20447;-85
2022/01/14 02:31:52;;;;;;;55.92;39.30;;;6.20;99.90;;;;;;5011085;28;20836;-87
2022/01/14 02:34:18;;;;;;;60.22;39.25;;;6.20;99.90;;;;;;5014855;28;20388;-85
2022/01/14 02:36:46;;;;;;;59.45;39.95;;;6.20;99.90;;;;;;5012255;28;20486;-86
2022/01/14 02:39:15;;;;;;;60.67;39.17;;;6.20;99.90;;;;;;5010886;28;20421;-86
2022/01/14 02:41:42;;;;;;;59.38;40.00;;;6.20;99.90;;;;;;5010166;28;20398;-84
2022/01/14 02:44:11;;;;;;;62.35;40.95;;;6.20;99.90;;;;;;5012120;28;20401;-83
2022/01/14 02:46:42;;;;;;;60.70;41.55;;;6.20;99.90;;;;;;5012879;28;20445;-84
2022/01/14 02:49:08;;;;;;;61.43;40.87;;;6.10;99.90;;;;;;5012054;28;20781;-83
2022/01/14 02:51:34;;;;;;;66.20;41.58;;;6.10;99.90;;;;;;5011732;28;20888;-84
2022/01/14 02:54:13;;;;;;;61.42;41.38;;;6.10;99.90;;;;;;5010904;28;20520;-85
2022/01/14 02:56:42;;;;;;;65.00;42.83;;;6.10;99.90;;;;;;5013840;28;20508;-81
2022/01/14 02:59:10;;;;;;;66.80;42.88;;;6.10;99.90;;;;;;5021937;28;20415;-84
2022/01/14 03:01:36;;;;;;;69.88;43.47;;;6.10;99.90;;;;;;5014647;28;20998;-86
2022/01/14 03:04:03;;;;;;;66.43;43.22;;;6.10;99.90;;;;;;5016585;28;20894;-85
2022/01/14 03:06:29;;;;;;;67.93;44.70;;;6.00;99.90;;;;;;5027545;28;20415;-86
2022/01/14 03:08:57;;;;;;;64.30;43.35;;;6.00;99.90;;;;;;5011622;28;21066;-87
2022/01/14 03:11:45;;;;;;;64.18;42.03;;;6.00;99.90;;;;;;5017356;28;20466;-85
2022/01/14 03:14:13;;;;;;;62.35;41.65;;;6.00;99.90;;;;;;5009843;28;20456;-85
2022/01/14 03:16:41;;;;;;;63.10;40.43;;;6.00;99.90;;;;;;5014562;28;21168;-84
2022/01/14 03:19:18;;;;;;;64.88;41.17;;;6.10;99.90;;;;;;5013506;28;20415;-84
2022/01/14 03:21:43;;;;;;;61.75;41.50;;;6.10;99.90;;;;;;5013452;28;20395;-85
2022/01/14 03:26:59;;;;;;;68.68;43.20;;;6.00;99.90;;;;;;5005852;28;20499;-83
2022/01/14 03:29:25;;;;;;;68.53;43.60;;;6.00;99.90;;;;;;5006225;28;20849;-84
2022/01/14 03:31:50;;;;;;;70.00;44.00;;;6.00;99.90;;;;;;5011185;28;20399;-83
2022/01/14 03:34:16;;;;;;;73.77;46.37;;;5.90;99.90;;;;;;5006901;28;20388;-85
2022/01/14 03:36:42;;;;;;;77.23;47.33;;;5.80;99.90;;;;;;5017014;28;20979;-87
2022/01/14 03:39:08;;;;;;;76.33;48.10;;;5.80;99.90;;;;;;5012560;28;20422;-84
2022/01/14 03:41:33;;;;;;;75.47;48.60;;;5.90;99.90;;;;;;5012398;28;20745;-85
2022/01/14 03:43:59;;;;;;;79.20;48.35;;;5.90;99.90;;;;;;5010139;28;20410;-85
2022/01/14 03:46:26;;;;;;;77.70;49.13;;;5.90;99.90;;;;;;5016977;28;20387;-83
2022/01/14 03:48:52;;;;;;;83.45;49.75;;;5.90;99.90;;;;;;5010762;28;20396;-85
2022/01/14 03:51:19;;;;;;;91.63;51.63;;;5.90;99.90;;;;;;5010101;28;20749;-83
2022/01/14 03:53:46;;;;;;;87.40;51.83;;;5.80;99.90;;;;;;5014193;28;20498;-87
2022/01/14 03:56:12;;;;;;;82.70;49.40;;;5.80;99.90;;;;;;5017989;28;20399;-85
2022/01/14 03:58:38;;;;;;;90.07;53.10;;;5.80;99.90;;;;;;5021720;28;20415;-87
2022/01/14 04:01:06;;;;;;;87.00;51.28;;;5.80;99.90;;;;;;5006517;28;20398;-85
2022/01/14 04:03:32;;;;;;;82.65;51.30;;;5.80;99.90;;;;;;5006037;28;20391;-84
2022/01/14 04:05:57;;;;;;;95.07;53.10;;;5.80;99.90;;;;;;5009262;28;20395;-86
2022/01/14 04:08:23;;;;;;;86.95;52.33;;;5.70;99.90;;;;;;5009852;28;20430;-86
2022/01/14 04:10:51;;;;;;;83.72;51.15;;;5.70;99.90;;;;;;5025791;28;20400;-86
2022/01/14 04:13:21;;;;;;;88.70;53.45;;;5.70;99.90;;;;;;5017775;28;20394;-85
2022/01/14 04:15:48;;;;;;;93.22;52.45;;;5.70;99.90;;;;;;5012323;28;20407;-83
2022/01/14 04:18:16;;;;;;;86.00;51.75;;;5.70;99.90;;;;;;5012888;28;20410;-85
2022/01/14 04:20:49;;;;;;;84.32;49.80;;;5.80;99.90;;;;;;5014273;28;20403;-83
2022/01/14 04:23:18;;;;;;;85.82;51.85;;;5.80;99.90;;;;;;5013232;28;20444;-85
2022/01/14 04:25:44;;;;;;;78.97;49.63;;;5.70;99.90;;;;;;5016958;28;20481;-86
2022/01/14 04:28:10;;;;;;;81.40;50.30;;;5.70;99.90;;;;;;5015311;28;20430;-85
2022/01/14 04:30:36;;;;;;;77.97;49.38;;;5.80;99.90;;;;;;5007251;28;20398;-84
2022/01/14 04:33:04;;;;;;;84.17;49.57;;;5.80;99.90;;;;;;5018627;28;20387;-86
2022/01/14 04:35:31;;;;;;;81.28;51.63;;;5.70;99.90;;;;;;5016808;28;20391;-86
2022/01/14 04:37:57;;;;;;;79.22;51.15;;;5.70;99.90;;;;;;5013988;28;20395;-88
2022/01/14 04:40:22;;;;;;;82.35;52.17;;;5.70;99.90;;;;;;5008759;28;20753;-87
2022/01/14 04:42:48;;;;;;;77.68;51.17;;;5.70;99.90;;;;;;5015030;28;20408;-85
2022/01/14 04:45:28;;;;;;;79.22;49.45;;;5.70;99.90;;;;;;5018379;28;20408;-85
2022/01/14 04:47:55;;;;;;;77.78;49.60;;;5.80;99.90;;;;;;5019250;28;20394;-85
2022/01/14 04:50:23;;;;;;;77.50;49.95;;;5.80;99.90;;;;;;5012110;28;20452;-85
2022/01/14 04:52:49;;;;;;;74.22;49.28;;;5.80;99.90;;;;;;5011366;28;20397;-85
2022/01/14 04:55:18;;;;;;;75.57;47.93;;;5.80;99.90;;;;;;5010112;28;20383;-85
2022/01/14 04:57:44;;;;;;;73.75;47.28;;;5.80;99.90;;;;;;5013886;28;20480;-85
2022/01/14 05:00:14;;;;;;;72.60;48.63;;;5.80;99.90;;;;;;5020116;28;20415;-85
2022/01/14 05:02:40;;;;;;;72.77;47.33;;;5.80;99.90;;;;;;5008762;28;20398;-84
2022/01/14 05:05:07;;;;;;;74.20;48.15;;;5.80;99.90;;;;;;5015146;28;20399;-84
2022/01/14 05:07:34;;;;;;;65.68;45.05;;;5.80;99.90;;;;;;5017371;28;20388;-85
2022/01/14 05:12:30;;;;;;;65.17;45.33;;;5.80;99.90;;;;;;5016014;28;20397;-84
2022/01/14 05:14:56;;;;;;;66.30;45.33;;;5.90;99.90;;;;;;5017368;28;20463;-84
2022/01/14 05:17:21;;;;;;;69.50;46.00;;;5.90;99.90;;;;;;5024798;28;20760;-84
2022/01/14 05:19:47;;;;;;;64.05;44.53;;;5.80;99.90;;;;;;5023233;28;20419;-86
2022/01/14 05:22:13;;;;;;;67.82;42.78;;;5.80;99.90;;;;;;5022179;28;20899;-85
2022/01/14 05:24:39;;;;;;;65.60;42.45;;;5.90;99.90;;;;;;5020189;28;20395;-84
2022/01/14 05:27:04;;;;;;;62.87;42.17;;;5.90;99.90;;;;;;5012236;28;20876;-85
2022/01/14 05:29:30;;;;;;;62.53;43.73;;;5.90;99.90;;;;;;5013417;28;20399;-85
2022/01/14 05:32:02;;;;;;;63.38;42.17;;;5.90;99.90;;;;;;5009985;28;20400;-85
2022/01/14 05:34:29;;;;;;;61.25;41.97;;;5.90;99.90;;;;;;5010156;28;20391;-87
2022/01/14 05:36:54;;;;;;;59.17;42.35;;;5.90;99.90;;;;;;5008535;28;20430;-85
2022/01/14 05:39:20;;;;;;;58.40;40.50;;;5.90;99.90;;;;;;5016850;28;20829;-86
2022/01/14 05:41:49;;;;;;;59.23;39.47;;;5.90;99.90;;;;;;5008247;28;20877;-84
2022/01/14 05:44:15;;;;;;;56.25;38.60;;;5.90;99.90;;;;;;5013223;28;21051;-86
2022/01/14 05:46:41;;;;;;;58.30;38.38;;;5.90;99.90;;;;;;5011504;28;20912;-85
2022/01/14 05:49:06;;;;;;;52.60;37.17;;;5.90;99.90;;;;;;5025856;28;20395;-87
2022/01/14 05:51:32;;;;;;;53.53;36.27;;;5.90;99.90;;;;;;5021537;28;20737;-86
2022/01/14 05:53:58;;;;;;;48.42;34.58;;;5.90;99.90;;;;;;5022634;28;20423;-86
2022/01/14 05:56:23;;;;;;;48.50;33.78;;;5.90;99.90;;;;;;5010861;28;20390;-85
2022/01/14 05:58:49;;;;;;;47.75;33.30;;;6.00;99.90;;;;;;5016269;28;20408;-86
2022/01/14 06:01:15;;;;;;;44.88;31.95;;;6.00;99.90;;;;;;5014909;28;20397;-85
2022/01/14 06:03:41;;;;;;;49.93;30.33;;;5.90;99.90;;;;;;5014494;28;20387;-86
2022/01/14 06:06:06;;;;;;;40.70;29.40;;;6.00;99.90;;;;;;5012284;28;20420;-84
2022/01/14 06:08:32;;;;;;;41.90;29.50;;;6.00;99.90;;;;;;5008034;28;20471;-86
2022/01/14 06:10:58;;;;;;;40.53;29.70;;;6.00;99.90;;;;;;5007488;28;20380;-85
2022/01/14 06:13:25;;;;;;;42.05;29.20;;;6.10;99.90;;;;;;5014536;28;20395;-86
2022/01/14 06:15:51;;;;;;;41.53;29.63;;;6.10;99.90;;;;;;5010185;28;20486;-86
2022/01/14 06:18:16;;;;;;;45.30;31.85;;;6.00;99.90;;;;;;5008351;28;20757;-86
2022/01/14 06:20:42;;;;;;;45.85;33.13;;;6.00;99.90;;;;;;5013312;28;20491;-85
2022/01/14 06:23:08;;;;;;;45.57;34.77;;;6.00;99.90;;;;;;5022110;28;20465;-85
2022/01/14 06:25:34;;;;;;;50.40;35.22;;;6.00;99.90;;;;;;5012505;28;20384;-84
2022/01/14 06:28:00;;;;;;;50.47;35.83;;;6.00;99.90;;;;;;5019349;28;20404;-86
2022/01/14 06:30:25;;;;;;;53.07;37.50;;;5.90;99.90;;;;;;5012464;28;20404;-84
2022/01/14 06:32:57;;;;;;;55.08;36.83;;;5.90;99.90;;;;;;5020606;28;20422;-85
2022/01/14 06:35:24;;;;;;;56.33;37.70;;;6.00;99.90;;;;;;5018048;28;20408;-86
2022/01/14 06:37:50;;;;;;;54.17;37.43;;;6.00;99.90;;;;;;5029885;28;20474;-85
2022/01/14 06:40:16;;;;;;;55.03;37.40;;;6.00;99.90;;;;;;5007600;28;20395;-84
2022/01/14 06:42:42;;;;;;;58.50;37.83;;;5.90;99.90;;;;;;5026651;28;20392;-84
2022/01/14 06:45:08;;;;;;;54.33;36.30;;;5.90;99.90;;;;;;5025303;28;20386;-86
2022/01/14 06:47:34;;;;;;;53.83;35.45;;;5.90;99.90;;;;;;5018254;28;20406;-84
2022/01/14 06:50:00;;;;;;;48.17;35.17;;;5.90;99.90;;;;;;5009400;28;20866;-85
2022/01/14 06:52:25;;;;;;;49.83;35.37;;;5.90;99.90;;;;;;5018574;28;20413;-86
2022/01/14 06:54:51;;;;;;;56.80;35.92;;;5.90;99.90;;;;;;5007659;28;20391;-83
2022/01/14 06:57:17;;;;;;;51.60;34.58;;;5.90;99.90;;;;;;5007727;28;21023;-85
2022/01/14 06:59:43;;;;;;;49.25;34.22;;;6.00;99.90;;;;;;5009773;28;20422;-84
2022/01/14 07:02:10;;;;;;;49.27;34.47;;;6.00;99.90;;;;;;5011032;28;20395;-85
2022/01/14 07:04:36;;;;;;;46.65;34.30;;;5.90;99.90;;;;;;5006476;28;20865;-85
2022/01/14 07:07:02;;;;;;;46.08;33.42;;;5.90;99.90;;;;;;5007384;28;20399;-86
2022/01/14 07:09:30;;;;;;;43.07;32.43;;;5.90;99.90;;;;;;5013331;28;20554;-84
2022/01/14 07:11:58;;;;;;;45.53;33.97;;;6.00;99.90;;;;;;5022048;28;20487;-87
2022/01/14 07:14:24;;;;;;;46.05;33.33;;;6.00;99.90;;;;;;5010396;28;20403;-85
2022/01/14 07:16:50;;;;;;;47.25;33.00;;;6.00;99.90;;;;;;5008790;28;20411;-84
2022/01/14 07:19:19;;;;;;;47.45;34.17;;;5.90;99.90;;;;;;5014159;28;20403;-85
2022/01/14 07:21:44;;;;;;;45.47;33.47;;;6.00;99.90;;;;;;5012241;28;20407;-86
2022/01/14 07:24:12;;;;;;;47.30;34.17;;;5.90;99.90;;;;;;5007644;28;21170;-84
2022/01/14 07:26:40;;;;;;;48.40;34.20;;;6.00;99.90;;;;;;5005756;28;20395;-83
2022/01/14 07:29:08;;;;;;;48.95;34.20;;;5.90;99.90;;;;;;5006574;28;20394;-83
2022/01/14 07:31:34;;;;;;;49.85;34.67;;;5.90;99.90;;;;;;5010317;28;20403;-86
2022/01/14 07:34:01;;;;;;;47.33;33.47;;;5.90;99.90;;;;;;5008657;28;20418;-83
2022/01/14 07:36:26;;;;;;;51.35;34.85;;;6.00;99.90;;;;;;5011565;28;20394;-84
2022/01/14 07:38:52;;;;;;;51.03;35.03;;;6.00;99.90;;;;;;5008504;28;20979;-83
2022/01/14 07:41:17;;;;;;;53.00;34.83;;;5.90;99.90;;;;;;5009915;28;20391;-86
2022/01/14 07:43:48;;;;;;;52.78;34.85;;;5.90;99.90;;;;;;5009035;28;20412;-86
2022/01/14 07:46:15;;;;;;;52.42;34.05;;;5.90;99.90;;;;;;5006258;28;20402;-86
2022/01/14 07:48:41;;;;;;;50.80;33.27;;;5.90;99.90;;;;;;5006551;28;20371;-84
2022/01/14 07:51:08;;;;;;;46.78;32.90;;;6.00;99.90;;;;;;5008021;28;20376;-85
2022/01/14 07:53:34;;;;;;;49.70;32.85;;;6.00;99.90;;;;;;5008712;28;20469;-84
2022/01/14 07:56:00;;;;;;;52.05;32.20;;;6.00;99.90;;;;;;5008348;28;20852;-87
2022/01/14 07:58:26;;;;;;;49.00;32.90;;;6.00;99.90;;;;;;5006609;28;20414;-84
2022/01/14 08:00:52;;;;;;;49.90;33.20;;;6.00;99.90;;;;;;5006518;28;20885;-87
2022/01/14 08:03:18;;;;;;;58.33;35.03;;;6.00;99.90;;;;;;5009116;28;20471;-84
2022/01/14 08:05:44;;;;;;;48.57;32.83;;;6.00;99.90;;;;;;5006322;28;20536;-85
2022/01/14 08:08:10;;;;;;;47.92;32.28;;;6.00;99.90;;;;;;5006173;28;20402;-86
2022/01/14 08:10:36;;;;;;;47.17;32.97;;;6.00;99.90;;;;;;5006152;28;20378;-86
2022/01/14 08:13:02;;;;;;;51.70;32.90;;;6.00;99.90;;;;;;5007610;28;20391;-86
2022/01/14 08:15:28;;;;;;;51.67;32.78;;;6.00;99.90;;;;;;5007837;28;20460;-86
2022/01/14 08:17:54;;;;;;;53.67;33.90;;;6.00;99.90;;;;;;5014603;28;20386;-84
2022/01/14 08:20:20;;;;;;;52.10;33.50;;;6.00;99.90;;;;;;5026759;28;20413;-85
2022/01/14 08:22:46;;;;;;;44.28;32.35;;;6.00;99.90;;;;;;5027616;28;20396;-84
2022/01/14 08:25:12;;;;;;;50.80;32.78;;;6.00;99.90;;;;;;5026440;28;20374;-85
2022/01/14 08:27:37;;;;;;;50.60;33.10;;;6.00;99.90;;;;;;5025841;28;20431;-84
2022/01/14 08:30:04;;;;;;;51.47;33.85;;;6.00;99.90;;;;;;5023490;28;20386;-84
2022/01/14 08:32:29;;;;;;;48.58;33.75;;;6.00;99.90;;;;;;5024136;28;20488;-84
2022/01/14 08:34:55;;;;;;;50.57;32.73;;;6.00;99.90;;;;;;5026019;28;20947;-85
2022/01/14 08:37:21;;;;;;;49.17;31.80;;;6.10;99.90;;;;;;5025427;28;20387;-84
2022/01/14 08:39:46;;;;;;;48.83;32.17;;;6.10;99.90;;;;;;5024345;28;20833;-84
2022/01/14 08:42:13;;;;;;;52.67;33.23;;;6.10;99.90;;;;;;5018695;28;20533;-84
2022/01/14 08:44:39;;;;;;;52.42;33.17;;;6.10;99.90;;;;;;5025675;28;20416;-83
2022/01/14 08:47:09;;;;;;;49.67;32.00;;;6.00;99.90;;;;;;5025734;28;20421;-84
2022/01/14 08:49:41;;;;;;;45.67;31.40;;;6.10;99.90;;;;;;5025465;28;20401;-84
2022/01/14 08:52:08;;;;;;;47.88;31.77;;;6.10;99.90;;;;;;5026627;28;20473;-83
2022/01/14 08:54:36;;;;;;;47.75;31.38;;;6.10;99.90;;;;;;5025100;28;20378;-84
2022/01/14 08:57:03;;;;;;;47.55;31.42;;;6.10;99.90;;;;;;5024944;28;20392;-85
2022/01/14 08:59:30;;;;;;;46.03;30.58;;;6.10;99.90;;;;;;5024160;28;20446;-84
2022/01/14 09:01:56;;;;;;;48.22;30.42;;;6.20;99.90;;;;;;5024785;28;20887;-84
2022/01/14 09:04:22;;;;;;;48.30;30.23;;;6.20;99.90;;;;;;5025449;28;20378;-85
2022/01/14 09:06:48;;;;;;;43.77;28.47;;;6.10;99.90;;;;;;5025439;28;20430;-84
2022/01/14 09:09:13;;;;;;;48.30;31.07;;;6.10;99.90;;;;;;5027950;28;20439;-85
2022/01/14 09:11:39;;;;;;;46.45;29.08;;;6.10;99.90;;;;;;5027944;28;20377;-84
2022/01/14 09:14:05;;;;;;;42.88;28.77;;;6.20;99.90;;;;;;5025711;28;20424;-85
2022/01/14 09:16:30;;;;;;;47.73;29.67;;;6.20;99.90;;;;;;5027833;28;21105;-85
2022/01/14 09:18:56;;;;;;;45.27;27.83;;;6.30;99.90;;;;;;5027657;28;20490;-85
2022/01/14 09:21:22;;;;;;;42.57;28.00;;;6.30;99.90;;;;;;5027692;28;20395;-85
2022/01/14 09:24:03;;;;;;;40.80;27.40;;;6.30;99.90;;;;;;5009504;28;20380;-84
2022/01/14 09:26:33;;;;;;;39.00;24.60;;;6.30;99.90;;;;;;5008760;28;20448;-83
2022/01/14 09:28:59;;;;;;;38.40;25.17;;;6.30;99.90;;;;;;5004361;28;20418;-85
2022/01/14 09:31:25;;;;;;;39.50;24.10;;;6.40;99.90;;;;;;5011691;28;20388;-84
2022/01/14 09:33:51;;;;;;;38.88;24.60;;;6.40;99.90;;;;;;5020845;28;20900;-85
2022/01/14 09:36:17;;;;;;;38.22;23.70;;;6.40;99.90;;;;;;5008568;28;20897;-85
2022/01/14 09:38:42;;;;;;;35.20;22.05;;;6.40;99.90;;;;;;5016379;28;20379;-84
2022/01/14 09:41:08;;;;;;;34.17;21.98;;;6.40;99.90;;;;;;5044137;28;20739;-83
2022/01/14 09:43:38;;;;;;;36.63;21.77;;;6.50;99.90;;;;;;5028984;28;20381;-84
2022/01/14 09:46:05;;;;;;;28.98;20.88;;;6.60;99.90;;;;;;5027737;28;20961;-84
2022/01/14 09:48:32;;;;;;;33.83;20.42;;;6.70;99.90;;;;;;5114328;27;20432;-87
2022/01/14 09:50:58;;;;;;;32.53;20.08;;;6.70;99.90;;;;;;5022236;28;20439;-85
2022/01/14 09:53:26;;;;;;;31.08;19.55;;;6.60;99.90;;;;;;5010820;28;20444;-83
2022/01/14 09:55:53;;;;;;;30.50;19.13;;;6.60;99.90;;;;;;5033155;28;20900;-83
2022/01/14 09:58:27;;;;;;;30.13;19.13;;;6.60;99.90;;;;;;5023311;28;21223;-83
2022/01/14 10:01:10;;;;;;;32.45;19.92;;;6.70;99.90;;;;;;5017314;28;20398;-84
2022/01/14 10:03:54;;;;;;;33.83;18.08;;;6.70;99.90;;;;;;5011247;28;20395;-84
2022/01/14 10:06:38;;;;;;;26.17;17.05;;;6.70;99.90;;;;;;5010060;28;20475;-83
2022/01/14 10:09:10;;;;;;;28.13;17.67;;;6.80;99.90;;;;;;5016722;28;20416;-85
2022/01/14 10:11:37;;;;;;;32.58;17.67;;;6.90;99.90;;;;;;5044226;28;20432;-85
2022/01/14 10:14:05;;;;;;;27.65;16.75;;;6.80;99.90;;;;;;5022591;28;20419;-85
2022/01/14 10:16:30;;;;;;;29.40;17.42;;;6.90;99.90;;;;;;5018105;28;20815;-86
2022/01/14 10:18:56;;;;;;;28.33;16.80;;;6.80;99.90;;;;;;5025320;28;20409;-86
2022/01/14 10:21:30;;;;;;;27.13;16.48;;;6.80;99.90;;;;;;5025108;28;20421;-86
2022/01/14 10:23:56;;;;;;;25.25;16.17;;;6.80;99.90;;;;;;5022426;28;20415;-85
2022/01/14 10:26:22;;;;;;;27.77;16.73;;;6.80;99.90;;;;;;5019124;28;20386;-84
2022/01/14 10:29:07;;;;;;;25.50;16.70;;;6.80;99.90;;;;;;5024551;28;20896;-84
2022/01/14 10:31:34;;;;;;;25.67;15.30;;;6.80;99.90;;;;;;5037238;28;20486;-85
2022/01/14 10:34:11;;;;;;;24.52;16.20;;;6.80;99.90;;;;;;5025519;28;20378;-84
2022/01/14 10:36:40;;;;;;;28.38;16.45;;;6.90;99.90;;;;;;5016497;28;20876;-85
2022/01/14 10:39:27;;;;;;;26.02;15.85;;;6.90;99.90;;;;;;5012682;28;20425;-85
2022/01/14 10:41:55;;;;;;;26.10;15.65;;;7.10;99.90;;;;;;5023059;28;20894;-83
2022/01/14 10:44:35;;;;;;;28.90;15.52;;;7.10;99.90;;;;;;5017977;28;20871;-85
2022/01/14 10:47:10;;;;;;;25.58;16.35;;;7.20;99.90;;;;;;5020156;28;20417;-85
2022/01/14 10:49:39;;;;;;;26.50;15.98;;;7.20;99.90;;;;;;5018646;28;20815;-85
2022/01/14 10:52:17;;;;;;;23.30;14.65;;;7.20;99.90;;;;;;5016921;28;20394;-84
2022/01/14 10:54:46;;;;;;;29.00;15.90;;;7.20;99.90;;;;;;5012846;28;20790;-85
2022/01/14 10:57:13;;;;;;;24.40;15.32;;;7.10;99.90;;;;;;5013870;28;20777;-84
2022/01/14 10:59:39;;;;;;;29.15;15.40;;;7.10;99.90;;;;;;5019616;28;20412;-85
2022/01/14 11:02:38;;;;;;;25.97;15.43;;;7.20;99.90;;;;;;5015389;28;20387;-84
2022/01/14 11:05:09;;;;;;;26.90;14.85;;;7.20;99.90;;;;;;5016071;28;20444;-85
2022/01/14 11:07:36;;;;;;;26.98;14.73;;;7.30;99.90;;;;;;5017919;28;20422;-84
2022/01/14 11:10:20;;;;;;;23.45;15.23;;;7.20;99.90;;;;;;5020667;28;20907;-85
2022/01/14 11:12:46;;;;;;;28.40;14.93;;;7.20;99.90;;;;;;5023823;28;20374;-84
2022/01/14 11:15:13;;;;;;;25.23;14.15;;;7.30;99.90;;;;;;5015588;28;20400;-84
2022/01/14 11:17:42;;;;;;;25.63;14.60;;;7.20;99.90;;;;;;5024308;28;20462;-84
2022/01/14 11:20:10;;;;;;;25.98;14.57;;;7.20;99.90;;;;;;5024430;28;20466;-84
2022/01/14 11:25:21;;;;;;;24.03;13.80;;;7.20;99.90;;;;;;5023216;28;20492;-86
2022/01/14 11:27:54;;;;;;;23.92;13.82;;;7.40;99.90;;;;;;5025233;28;20376;-85
2022/01/14 11:30:20;;;;;;;24.40;13.52;;;7.40;99.90;;;;;;5021597;28;20813;-85
2022/01/14 11:32:55;;;;;;;24.55;13.10;;;7.30;99.90;;;;;;5015265;28;20397;-85
2022/01/14 11:35:25;;;;;;;24.38;13.35;;;7.40;99.90;;;;;;5022487;28;20460;-84
2022/01/14 11:37:53;;;;;;;25.00;13.45;;;7.30;99.90;;;;;;5023654;28;20408;-84
2022/01/14 11:40:19;;;;;;;19.80;11.57;;;7.30;99.90;;;;;;5018863;28;20399;-84
2022/01/14 11:42:59;;;;;;;21.30;12.68;;;7.40;99.90;;;;;;5025023;28;20382;-85
2022/01/14 11:45:46;;;;;;;21.65;12.20;;;7.40;99.90;;;;;;5016310;28;20396;-85
2022/01/14 11:48:33;;;;;;;22.88;12.82;;;7.40;99.90;;;;;;5022154;28;20386;-86
2022/01/14 11:51:06;;;;;;;23.10;12.95;;;7.40;99.90;;;;;;5015227;28;20885;-85
2022/01/14 11:53:36;;;;;;;21.48;13.40;;;7.30;99.90;;;;;;5020938;28;20381;-84
2022/01/14 11:56:03;;;;;;;24.40;13.57;;;7.30;99.90;;;;;;5022643;28;20889;-84
2022/01/14 11:58:29;;;;;;;23.17;14.07;;;7.30;99.90;;;;;;5014232;28;20387;-87
2022/01/14 12:00:54;;;;;;;27.00;14.73;;;7.30;99.90;;;;;;5021881;28;20881;-84
2022/01/14 12:03:26;;;;;;;24.73;14.13;;;7.30;99.90;;;;;;5016300;28;20398;-86
2022/01/14 12:06:02;;;;;;;25.98;15.05;;;7.50;99.90;;;;;;5015286;28;20488;-84
2022/01/14 12:08:31;;;;;;;29.27;16.13;;;7.40;99.90;;;;;;5012007;28;20432;-84
2022/01/14 12:11:07;;;;;;;25.42;16.60;;;7.30;99.90;;;;;;5021476;28;20386;-85
2022/01/14 12:14:00;;;;;;;28.63;16.17;;;7.20;99.90;;;;;;5011868;28;20402;-83
2022/01/14 12:18:57;;;;;;;28.15;16.73;;;7.20;99.90;;;;;;5022564;28;20840;-85
2022/01/14 12:21:50;;;;;;;28.30;16.67;;;7.20;99.90;;;;;;5014000;28;20900;-85
2022/01/14 12:24:16;;;;;;;31.83;17.02;;;7.20;99.90;;;;;;5018018;28;20405;-84
2022/01/14 12:27:12;;;;;;;31.98;17.73;;;7.20;99.90;;;;;;5016689;28;20381;-84
2022/01/14 12:29:40;;;;;;;28.77;17.50;;;7.20;99.90;;;;;;5019614;28;20397;-83
2022/01/14 12:32:10;;;;;;;28.33;17.30;;;7.20;99.90;;;;;;5021468;28;20408;-84
2022/01/14 12:34:56;;;;;;;32.33;18.90;;;7.20;99.90;;;;;;5017109;28;20403;-86
2022/01/14 12:37:30;;;;;;;31.33;19.08;;;7.20;99.90;;;;;;5021537;28;20392;-85
2022/01/14 12:40:01;;;;;;;33.77;19.57;;;7.10;99.90;;;;;;5022084;28;20401;-84
2022/01/14 12:42:27;;;;;;;27.73;19.20;;;7.20;99.90;;;;;;5007568;28;20429;-84
2022/01/14 12:45:00;;;;;;;29.10;18.37;;;7.20;99.90;;;;;;5007358;28;20414;-84
2022/01/14 12:47:32;;;;;;;32.10;19.35;;;7.20;99.90;;;;;;5005645;28;20383;-84
2022/01/14 12:50:02;;;;;;;28.05;19.52;;;7.20;99.90;;;;;;5007785;28;20411;-84
2022/01/14 12:52:38;;;;;;;30.63;20.35;;;7.30;99.90;;;;;;5011785;28;20406;-86
2022/01/14 12:55:08;;;;;;;34.25;21.00;;;7.20;99.90;;;;;;5010983;28;20384;-84
2022/01/14 12:57:34;;;;;;;31.13;22.00;;;7.20;99.90;;;;;;5014291;28;20948;-82
2022/01/14 13:00:00;;;;;;;32.03;22.05;;;7.20;99.90;;;;;;5015189;28;20556;-85
2022/01/14 13:02:31;;;;;;;33.03;21.77;;;7.10;99.90;;;;;;5017281;28;20755;-85
2022/01/14 13:05:06;;;;;;;31.55;22.42;;;7.10;99.90;;;;;;5016956;28;20417;-85
2022/01/14 13:07:33;;;;;;;32.55;22.30;;;7.10;99.90;;;;;;5020880;28;20894;-84
2022/01/14 13:10:00;;;;;;;32.78;22.58;;;7.10;99.90;;;;;;5016877;28;20386;-84
2022/01/14 13:12:37;;;;;;;34.55;22.38;;;7.10;99.90;;;;;;5016940;28;20386;-84